sensor_id;sensor_type;location;lat;lon;timestamp;pressure;altitude;pressure_sealevel;temperature
75273;BMP280;63869;52.344;16.928;2024-03-06T00:01:58;101070.09;;;1.11
75273;BMP280;63869;52.344;16.928;2024-03-06T00:04:23;101064.47;;;1.00
75273;BMP280;63869;52.344;16.928;2024-03-06T00:06:49;101160.69;;;1.64
75273;BMP280;63869;52.344;16.928;2024-03-06T00:09:17;101088.53;;;1.11
75273;BMP280;63869;52.344;16.928;2024-03-06T00:11:43;101067.16;;;0.91
75273;BMP280;63869;52.344;16.928;2024-03-06T00:14:09;101074.59;;;0.89
75273;BMP280;63869;52.344;16.928;2024-03-06T00:16:34;101068.00;;;0.83
75273;BMP280;63869;52.344;16.928;2024-03-06T00:18:59;101154.22;;;1.40
75273;BMP280;63869;52.344;16.928;2024-03-06T00:21:25;101139.56;;;1.18
75273;BMP280;63869;52.344;16.928;2024-03-06T00:23:50;101071.00;;;0.73
75273;BMP280;63869;52.344;16.928;2024-03-06T00:26:16;101108.81;;;0.89
75273;BMP280;63869;52.344;16.928;2024-03-06T00:28:41;101079.59;;;0.61
75273;BMP280;63869;52.344;16.928;2024-03-06T00:31:06;101075.28;;;0.57
75273;BMP280;63869;52.344;16.928;2024-03-06T00:33:32;101073.31;;;0.54
75273;BMP280;63869;52.344;16.928;2024-03-06T00:35:57;101068.72;;;0.42
75273;BMP280;63869;52.344;16.928;2024-03-06T00:38:23;101058.28;;;0.34
75273;BMP280;63869;52.344;16.928;2024-03-06T00:40:48;101117.47;;;0.69
75273;BMP280;63869;52.344;16.928;2024-03-06T00:43:13;101119.03;;;0.61
75273;BMP280;63869;52.344;16.928;2024-03-06T00:45:39;101118.16;;;0.57
75273;BMP280;63869;52.344;16.928;2024-03-06T00:48:04;101109.69;;;0.52
75273;BMP280;63869;52.344;16.928;2024-03-06T00:50:30;101085.59;;;0.41
75273;BMP280;63869;52.344;16.928;2024-03-06T00:52:55;101141.28;;;0.73
75273;BMP280;63869;52.344;16.928;2024-03-06T00:55:21;101200.00;;;1.15
75273;BMP280;63869;52.344;16.928;2024-03-06T00:57:46;101093.47;;;0.41
75273;BMP280;63869;52.344;16.928;2024-03-06T01:00:12;101120.41;;;0.68
75273;BMP280;63869;52.344;16.928;2024-03-06T01:02:38;101089.19;;;0.37
75273;BMP280;63869;52.344;16.928;2024-03-06T01:05:04;101181.50;;;1.03
75273;BMP280;63869;52.344;16.928;2024-03-06T01:07:30;101131.25;;;0.66
75273;BMP280;63869;52.344;16.928;2024-03-06T01:09:56;101146.28;;;0.66
75273;BMP280;63869;52.344;16.928;2024-03-06T01:12:23;101119.34;;;0.39
75273;BMP280;63869;52.344;16.928;2024-03-06T01:14:48;101122.47;;;0.33
75273;BMP280;63869;52.344;16.928;2024-03-06T01:17:13;101097.19;;;0.19
75273;BMP280;63869;52.344;16.928;2024-03-06T01:19:39;101137.75;;;0.39
75273;BMP280;63869;52.344;16.928;2024-03-06T01:22:04;101141.72;;;0.45
75273;BMP280;63869;52.344;16.928;2024-03-06T01:24:29;101125.88;;;0.33
75273;BMP280;63869;52.344;16.928;2024-03-06T01:26:55;101185.56;;;0.71
75273;BMP280;63869;52.344;16.928;2024-03-06T01:29:20;101132.09;;;0.28
75273;BMP280;63869;52.344;16.928;2024-03-06T01:31:45;101194.97;;;0.72
75273;BMP280;63869;52.344;16.928;2024-03-06T01:34:12;101173.69;;;0.56
75273;BMP280;63869;52.344;16.928;2024-03-06T01:36:41;101152.75;;;0.39
75273;BMP280;63869;52.344;16.928;2024-03-06T01:39:06;101135.75;;;0.36
75273;BMP280;63869;52.344;16.928;2024-03-06T01:41:32;101243.38;;;1.09
75273;BMP280;63869;52.344;16.928;2024-03-06T01:43:57;101126.25;;;0.44
75273;BMP280;63869;52.344;16.928;2024-03-06T01:46:22;101168.34;;;0.73
75273;BMP280;63869;52.344;16.928;2024-03-06T01:48:52;101169.97;;;0.86
75273;BMP280;63869;52.344;16.928;2024-03-06T01:51:17;101131.97;;;0.75
75273;BMP280;63869;52.344;16.928;2024-03-06T01:53:43;101107.31;;;0.59
75273;BMP280;63869;52.344;16.928;2024-03-06T01:56:09;101170.59;;;1.13
75273;BMP280;63869;52.344;16.928;2024-03-06T01:58:38;101243.38;;;1.71
75273;BMP280;63869;52.344;16.928;2024-03-06T02:01:04;101139.78;;;1.13
75273;BMP280;63869;52.344;16.928;2024-03-06T02:03:32;101165.84;;;1.27
75273;BMP280;63869;52.344;16.928;2024-03-06T02:05:58;101122.59;;;1.07
75273;BMP280;63869;52.344;16.928;2024-03-06T02:08:24;101234.31;;;1.81
75273;BMP280;63869;52.344;16.928;2024-03-06T02:10:49;101147.19;;;1.32
75273;BMP280;63869;52.344;16.928;2024-03-06T02:13:15;101136.00;;;1.35
75273;BMP280;63869;52.344;16.928;2024-03-06T02:15:40;101170.13;;;1.65
75273;BMP280;63869;52.344;16.928;2024-03-06T02:18:06;101184.69;;;1.83
75273;BMP280;63869;52.344;16.928;2024-03-06T02:20:31;101176.34;;;1.81
75273;BMP280;63869;52.344;16.928;2024-03-06T02:22:57;101157.66;;;1.74
75273;BMP280;63869;52.344;16.928;2024-03-06T02:25:23;101142.34;;;1.67
75273;BMP280;63869;52.344;16.928;2024-03-06T02:27:49;101167.00;;;1.83
75273;BMP280;63869;52.344;16.928;2024-03-06T02:30:14;101244.31;;;2.45
75273;BMP280;63869;52.344;16.928;2024-03-06T02:32:40;101221.91;;;2.39
75273;BMP280;63869;52.344;16.928;2024-03-06T02:35:05;101144.91;;;1.88
75273;BMP280;63869;52.344;16.928;2024-03-06T02:37:33;101210.25;;;2.40
75273;BMP280;63869;52.344;16.928;2024-03-06T02:39:59;101104.81;;;1.70
75273;BMP280;63869;52.344;16.928;2024-03-06T02:42:24;101142.06;;;1.93
75273;BMP280;63869;52.344;16.928;2024-03-06T02:44:50;101103.72;;;1.71
75273;BMP280;63869;52.344;16.928;2024-03-06T02:47:15;101112.63;;;1.79
75273;BMP280;63869;52.344;16.928;2024-03-06T02:49:40;101253.56;;;2.75
75273;BMP280;63869;52.344;16.928;2024-03-06T02:52:06;101141.28;;;2.05
75273;BMP280;63869;52.344;16.928;2024-03-06T02:54:31;101189.78;;;2.37
75273;BMP280;63869;52.344;16.928;2024-03-06T02:56:57;101179.09;;;2.33
75273;BMP280;63869;52.344;16.928;2024-03-06T02:59:22;101179.38;;;2.28
75273;BMP280;63869;52.344;16.928;2024-03-06T03:01:49;101143.75;;;2.10
75273;BMP280;63869;52.344;16.928;2024-03-06T03:04:14;101156.69;;;2.15
75273;BMP280;63869;52.344;16.928;2024-03-06T03:06:39;101171.88;;;2.18
75273;BMP280;63869;52.344;16.928;2024-03-06T03:09:05;101126.91;;;1.78
75273;BMP280;63869;52.344;16.928;2024-03-06T03:11:30;101113.34;;;1.55
75273;BMP280;63869;52.344;16.928;2024-03-06T03:13:57;101205.81;;;2.20
75273;BMP280;63869;52.344;16.928;2024-03-06T03:16:22;101140.69;;;1.63
75273;BMP280;63869;52.344;16.928;2024-03-06T03:18:47;101177.72;;;1.66
75273;BMP280;63869;52.344;16.928;2024-03-06T03:21:13;101169.97;;;1.49
75273;BMP280;63869;52.344;16.928;2024-03-06T03:23:39;101194.56;;;1.53
75273;BMP280;63869;52.344;16.928;2024-03-06T03:26:06;101101.59;;;0.78
75273;BMP280;63869;52.344;16.928;2024-03-06T03:28:40;101151.00;;;1.02
75273;BMP280;63869;52.344;16.928;2024-03-06T03:31:09;101188.25;;;1.12
75273;BMP280;63869;52.344;16.928;2024-03-06T03:33:38;101232.34;;;1.36
75273;BMP280;63869;52.344;16.928;2024-03-06T03:36:05;101266.03;;;1.51
75273;BMP280;63869;52.344;16.928;2024-03-06T03:38:32;101142.59;;;0.58
75273;BMP280;63869;52.344;16.928;2024-03-06T03:40:57;101179.16;;;0.80
75273;BMP280;63869;52.344;16.928;2024-03-06T03:43:23;101086.53;;;0.16
75273;BMP280;63869;52.344;16.928;2024-03-06T03:45:49;101173.34;;;0.66
75273;BMP280;63869;52.344;16.928;2024-03-06T03:48:14;101197.28;;;0.73
75273;BMP280;63869;52.344;16.928;2024-03-06T03:50:40;101236.03;;;0.94
75273;BMP280;63869;52.344;16.928;2024-03-06T03:53:05;101193.22;;;0.55
75273;BMP280;63869;52.344;16.928;2024-03-06T03:55:30;101209.09;;;0.67
75273;BMP280;63869;52.344;16.928;2024-03-06T03:57:56;101215.06;;;0.76
75273;BMP280;63869;52.344;16.928;2024-03-06T04:00:22;101286.25;;;1.18
75273;BMP280;63869;52.344;16.928;2024-03-06T04:02:48;101104.22;;;-0.02
75273;BMP280;63869;52.344;16.928;2024-03-06T04:05:13;101168.53;;;0.39
75273;BMP280;63869;52.344;16.928;2024-03-06T04:07:39;101243.22;;;0.84
75273;BMP280;63869;52.344;16.928;2024-03-06T04:10:06;101160.88;;;0.25
75273;BMP280;63869;52.344;16.928;2024-03-06T04:12:31;101201.88;;;0.47
75273;BMP280;63869;52.344;16.928;2024-03-06T04:14:57;101168.56;;;0.30
75273;BMP280;63869;52.344;16.928;2024-03-06T04:17:22;101188.19;;;0.33
75273;BMP280;63869;52.344;16.928;2024-03-06T04:19:48;101109.84;;;-0.21
75273;BMP280;63869;52.344;16.928;2024-03-06T04:22:14;101161.53;;;0.13
75273;BMP280;63869;52.344;16.928;2024-03-06T04:24:42;101275.69;;;0.88
75273;BMP280;63869;52.344;16.928;2024-03-06T04:27:08;101248.72;;;0.62
75273;BMP280;63869;52.344;16.928;2024-03-06T04:29:33;101175.47;;;0.05
75273;BMP280;63869;52.344;16.928;2024-03-06T04:31:59;101149.56;;;-0.14
75273;BMP280;63869;52.344;16.928;2024-03-06T04:34:24;101291.53;;;0.80
75273;BMP280;63869;52.344;16.928;2024-03-06T04:36:49;101275.78;;;0.71
75273;BMP280;63869;52.344;16.928;2024-03-06T04:39:15;101222.25;;;0.29
75273;BMP280;63869;52.344;16.928;2024-03-06T04:41:40;101169.78;;;-0.06
75273;BMP280;63869;52.344;16.928;2024-03-06T04:44:05;101273.66;;;0.56
75273;BMP280;63869;52.344;16.928;2024-03-06T04:46:31;101254.06;;;0.36
75273;BMP280;63869;52.344;16.928;2024-03-06T04:48:56;101200.06;;;0.01
75273;BMP280;63869;52.344;16.928;2024-03-06T04:51:22;101239.44;;;0.26
75273;BMP280;63869;52.344;16.928;2024-03-06T04:53:48;101292.06;;;0.56
75273;BMP280;63869;52.344;16.928;2024-03-06T04:56:13;101208.41;;;-0.06
75273;BMP280;63869;52.344;16.928;2024-03-06T04:58:38;101221.88;;;0.01
75273;BMP280;63869;52.344;16.928;2024-03-06T05:01:04;101277.91;;;0.31
75273;BMP280;63869;52.344;16.928;2024-03-06T05:03:29;101217.38;;;-0.07
75273;BMP280;63869;52.344;16.928;2024-03-06T05:05:55;101184.94;;;-0.20
75273;BMP280;63869;52.344;16.928;2024-03-06T05:08:20;101293.03;;;0.43
75273;BMP280;63869;52.344;16.928;2024-03-06T05:10:46;101281.91;;;0.37
75273;BMP280;63869;52.344;16.928;2024-03-06T05:13:11;101180.81;;;-0.29
75273;BMP280;63869;52.344;16.928;2024-03-06T05:15:37;101206.28;;;-0.21
75273;BMP280;63869;52.344;16.928;2024-03-06T05:18:02;101286.75;;;0.26
75273;BMP280;63869;52.344;16.928;2024-03-06T05:20:28;101237.50;;;-0.11
75273;BMP280;63869;52.344;16.928;2024-03-06T05:22:56;101301.91;;;0.29
75273;BMP280;63869;52.344;16.928;2024-03-06T05:25:21;101312.97;;;0.44
75273;BMP280;63869;52.344;16.928;2024-03-06T05:27:47;101239.31;;;-0.03
75273;BMP280;63869;52.344;16.928;2024-03-06T05:30:12;101278.41;;;0.16
75273;BMP280;63869;52.344;16.928;2024-03-06T05:32:38;101168.75;;;-0.56
75273;BMP280;63869;52.344;16.928;2024-03-06T05:35:03;101235.94;;;-0.12
75273;BMP280;63869;52.344;16.928;2024-03-06T05:37:29;101230.69;;;-0.21
75273;BMP280;63869;52.344;16.928;2024-03-06T05:39:54;101258.81;;;-0.04
75273;BMP280;63869;52.344;16.928;2024-03-06T05:42:19;101220.31;;;-0.35
75273;BMP280;63869;52.344;16.928;2024-03-06T05:44:45;101263.44;;;-0.01
75273;BMP280;63869;52.344;16.928;2024-03-06T05:47:11;101245.50;;;-0.16
75273;BMP280;63869;52.344;16.928;2024-03-06T05:49:37;101232.69;;;-0.18
75273;BMP280;63869;52.344;16.928;2024-03-06T05:52:02;101246.28;;;-0.07
75273;BMP280;63869;52.344;16.928;2024-03-06T05:54:31;101208.63;;;-0.28
75273;BMP280;63869;52.344;16.928;2024-03-06T05:57:22;101177.09;;;-0.46
75273;BMP280;63869;52.344;16.928;2024-03-06T06:00:13;101337.69;;;0.60
75273;BMP280;63869;52.344;16.928;2024-03-06T06:03:07;101340.78;;;0.71
